KSEE/SEE METAR and TAF weather

Enter ICAO airport designator
Station Type Date Time Source
KSEE METAR 2022/12/05 14:54 UTC NOAA

KSEE 051454Z 00000KT 10SM FEW011 OVC020 13/12 A3007


Station Type Date Time Source
KSEE Decoded METAR 2022/12/05 14:54 UTC NOAA

San Diego/El Cajon, Gillespie Field Airport, CA, United States (KSEE) 32-49-34N 116-58-20W
Dec 05, 2022 - 09:54 AM EST / 2022.12.05 1454 UTC
Wind: Calm:0
Visibility: 10 mile(s):0
Sky conditions: overcast
Temperature: 55 F (13 C)
Dew Point: 53 F (12 C)
Relative Humidity: 93%
Pressure (altimeter): 30.07 in. Hg (1018 hPa)
ob: KSEE 051454Z 00000KT 10SM FEW011 OVC020 13/12 A3007
cycle: 15

Station Type Date Time Source
KSEE TAF UTC NOAA

Error!

Example: see airport list